sensor_id;sensor_type;location;lat;lon;timestamp;pressure;altitude;pressure_sealevel;temperature
15453;BMP280;7827;53.594;9.938;2022-10-16T00:01:45;152042.44;;;14.82
15453;BMP280;7827;53.594;9.938;2022-10-16T00:04:14;152046.22;;;14.83
15453;BMP280;7827;53.594;9.938;2022-10-16T00:06:44;152042.44;;;14.82
15453;BMP280;7827;53.594;9.938;2022-10-16T00:09:13;152038.69;;;14.80
15453;BMP280;7827;53.594;9.938;2022-10-16T00:11:41;152042.44;;;14.82
15453;BMP280;7827;53.594;9.938;2022-10-16T00:14:13;152041.22;;;14.81
15453;BMP280;7827;53.594;9.938;2022-10-16T00:16:42;152036.16;;;14.79
15453;BMP280;7827;53.594;9.938;2022-10-16T00:19:11;152037.44;;;14.80
15453;BMP280;7827;53.594;9.938;2022-10-16T00:21:40;152034.91;;;14.79
15453;BMP280;7827;53.594;9.938;2022-10-16T00:24:28;152031.16;;;14.77
15453;BMP280;7827;53.594;9.938;2022-10-16T00:26:57;152031.16;;;14.77
15453;BMP280;7827;53.594;9.938;2022-10-16T00:29:25;152021.06;;;14.73
15453;BMP280;7827;53.594;9.938;2022-10-16T00:31:53;152021.06;;;14.73
15453;BMP280;7827;53.594;9.938;2022-10-16T00:34:22;152021.06;;;14.73
15453;BMP280;7827;53.594;9.938;2022-10-16T00:36:50;152023.59;;;14.74
15453;BMP280;7827;53.594;9.938;2022-10-16T00:39:18;152026.13;;;14.75
15453;BMP280;7827;53.594;9.938;2022-10-16T00:41:48;152027.38;;;14.76
15453;BMP280;7827;53.594;9.938;2022-10-16T00:44:47;152031.16;;;14.77
15453;BMP280;7827;53.594;9.938;2022-10-16T00:47:24;152023.59;;;14.74
15453;BMP280;7827;53.594;9.938;2022-10-16T00:50:01;152033.69;;;14.78
15453;BMP280;7827;53.594;9.938;2022-10-16T00:52:32;152029.91;;;14.77
15453;BMP280;7827;53.594;9.938;2022-10-16T00:55:03;152032.38;;;14.78
15453;BMP280;7827;53.594;9.938;2022-10-16T00:57:34;152043.69;;;14.82
15453;BMP280;7827;53.594;9.938;2022-10-16T01:00:05;152046.22;;;14.83
15453;BMP280;7827;53.594;9.938;2022-10-16T01:02:34;152041.22;;;14.81
15453;BMP280;7827;53.594;9.938;2022-10-16T01:05:04;152039.94;;;14.81
15453;BMP280;7827;53.594;9.938;2022-10-16T01:07:45;152032.38;;;14.78
15453;BMP280;7827;53.594;9.938;2022-10-16T01:10:27;152027.38;;;14.76
15453;BMP280;7827;53.594;9.938;2022-10-16T01:13:07;152026.13;;;14.75
15453;BMP280;7827;53.594;9.938;2022-10-16T01:15:42;152026.13;;;14.75
15453;BMP280;7827;53.594;9.938;2022-10-16T01:18:16;152008.53;;;14.68
15453;BMP280;7827;53.594;9.938;2022-10-16T01:20:53;152006.00;;;14.67
15453;BMP280;7827;53.594;9.938;2022-10-16T01:23:38;151990.94;;;14.61
15453;BMP280;7827;53.594;9.938;2022-10-16T01:26:29;151982.16;;;14.58
15453;BMP280;7827;53.594;9.938;2022-10-16T01:29:07;151978.38;;;14.57
15453;BMP280;7827;53.594;9.938;2022-10-16T01:31:40;151975.84;;;14.56
15453;BMP280;7827;53.594;9.938;2022-10-16T01:34:16;151974.63;;;14.55
15453;BMP280;7827;53.594;9.938;2022-10-16T01:36:52;151958.28;;;14.49
15453;BMP280;7827;53.594;9.938;2022-10-16T01:39:27;151958.28;;;14.49
15453;BMP280;7827;53.594;9.938;2022-10-16T01:42:02;151948.22;;;14.45
15453;BMP280;7827;53.594;9.938;2022-10-16T01:44:35;151945.69;;;14.44
15453;BMP280;7827;53.594;9.938;2022-10-16T01:47:05;151933.16;;;14.39
15453;BMP280;7827;53.594;9.938;2022-10-16T01:49:38;151930.63;;;14.38
15453;BMP280;7827;53.594;9.938;2022-10-16T01:52:12;151930.63;;;14.38
15453;BMP280;7827;53.594;9.938;2022-10-16T01:54:46;151929.38;;;14.37
15453;BMP280;7827;53.594;9.938;2022-10-16T01:57:31;151921.84;;;14.34
15453;BMP280;7827;53.594;9.938;2022-10-16T02:00:11;151919.31;;;14.33
15453;BMP280;7827;53.594;9.938;2022-10-16T02:02:42;151910.56;;;14.30
15453;BMP280;7827;53.594;9.938;2022-10-16T02:05:20;151915.56;;;14.32
15453;BMP280;7827;53.594;9.938;2022-10-16T02:07:50;151910.56;;;14.30
15453;BMP280;7827;53.594;9.938;2022-10-16T02:10:19;151908.03;;;14.29
15453;BMP280;7827;53.594;9.938;2022-10-16T02:12:55;151899.25;;;14.25
15453;BMP280;7827;53.594;9.938;2022-10-16T02:15:25;151895.47;;;14.24
15453;BMP280;7827;53.594;9.938;2022-10-16T02:17:53;151892.94;;;14.23
15453;BMP280;7827;53.594;9.938;2022-10-16T02:20:28;151886.66;;;14.20
15453;BMP280;7827;53.594;9.938;2022-10-16T02:22:59;151884.19;;;14.19
15453;BMP280;7827;53.594;9.938;2022-10-16T02:25:32;151875.34;;;14.16
15453;BMP280;7827;53.594;9.938;2022-10-16T02:28:08;151876.63;;;14.16
15453;BMP280;7827;53.594;9.938;2022-10-16T02:30:42;151869.09;;;14.13
15453;BMP280;7827;53.594;9.938;2022-10-16T02:33:13;151865.34;;;14.12
15453;BMP280;7827;53.594;9.938;2022-10-16T02:35:45;151847.75;;;14.05
15453;BMP280;7827;53.594;9.938;2022-10-16T02:38:16;151850.22;;;14.06
15453;BMP280;7827;53.594;9.938;2022-10-16T02:40:44;151842.63;;;14.03
15453;BMP280;7827;53.594;9.938;2022-10-16T02:43:13;151822.56;;;13.95
15453;BMP280;7827;53.594;9.938;2022-10-16T02:45:43;151821.31;;;13.95
15453;BMP280;7827;53.594;9.938;2022-10-16T02:48:11;151817.56;;;13.93
15453;BMP280;7827;53.594;9.938;2022-10-16T02:50:39;151825.09;;;13.96
15453;BMP280;7827;53.594;9.938;2022-10-16T02:53:08;151817.56;;;13.93
15453;BMP280;7827;53.594;9.938;2022-10-16T02:55:36;151815.03;;;13.92
15453;BMP280;7827;53.594;9.938;2022-10-16T02:58:04;151815.03;;;13.92
15453;BMP280;7827;53.594;9.938;2022-10-16T03:00:32;151808.72;;;13.90
15453;BMP280;7827;53.594;9.938;2022-10-16T03:03:02;151799.97;;;13.86
15453;BMP280;7827;53.594;9.938;2022-10-16T03:05:30;151801.19;;;13.87
15453;BMP280;7827;53.594;9.938;2022-10-16T03:07:58;151801.19;;;13.87
15453;BMP280;7827;53.594;9.938;2022-10-16T03:10:27;151797.44;;;13.85
15453;BMP280;7827;53.594;9.938;2022-10-16T03:12:56;151788.66;;;13.82
15453;BMP280;7827;53.594;9.938;2022-10-16T03:15:24;151784.88;;;13.80
15453;BMP280;7827;53.594;9.938;2022-10-16T03:17:52;151783.66;;;13.80
15453;BMP280;7827;53.594;9.938;2022-10-16T03:20:22;151776.13;;;13.77
15453;BMP280;7827;53.594;9.938;2022-10-16T03:22:50;151769.81;;;13.74
15453;BMP280;7827;53.594;9.938;2022-10-16T03:25:18;151764.78;;;13.72
15453;BMP280;7827;53.594;9.938;2022-10-16T03:27:46;151742.19;;;13.63
15453;BMP280;7827;53.594;9.938;2022-10-16T03:30:14;151739.69;;;13.63
15453;BMP280;7827;53.594;9.938;2022-10-16T03:32:44;151739.69;;;13.63
15453;BMP280;7827;53.594;9.938;2022-10-16T03:35:12;151742.19;;;13.63
15453;BMP280;7827;53.594;9.938;2022-10-16T03:37:42;151739.69;;;13.63
15453;BMP280;7827;53.594;9.938;2022-10-16T03:40:11;151738.41;;;13.62
15453;BMP280;7827;53.594;9.938;2022-10-16T03:42:39;151749.69;;;13.66
15453;BMP280;7827;53.594;9.938;2022-10-16T03:45:08;151747.22;;;13.65
15453;BMP280;7827;53.594;9.938;2022-10-16T03:47:37;151742.19;;;13.63
15453;BMP280;7827;53.594;9.938;2022-10-16T03:50:07;151749.69;;;13.66
15453;BMP280;7827;53.594;9.938;2022-10-16T03:52:35;151749.69;;;13.66
15453;BMP280;7827;53.594;9.938;2022-10-16T03:55:06;151744.69;;;13.64
15453;BMP280;7827;53.594;9.938;2022-10-16T03:57:34;151735.94;;;13.61
15453;BMP280;7827;53.594;9.938;2022-10-16T04:00:03;151729.63;;;13.59
15453;BMP280;7827;53.594;9.938;2022-10-16T04:02:38;151734.63;;;13.61
15453;BMP280;7827;53.594;9.938;2022-10-16T04:05:07;151737.16;;;13.62
15453;BMP280;7827;53.594;9.938;2022-10-16T04:07:35;151737.16;;;13.62
15453;BMP280;7827;53.594;9.938;2022-10-16T04:10:07;151734.63;;;13.61
15453;BMP280;7827;53.594;9.938;2022-10-16T04:12:35;151722.09;;;13.56
15453;BMP280;7827;53.594;9.938;2022-10-16T04:15:04;151719.56;;;13.55
15453;BMP280;7827;53.594;9.938;2022-10-16T04:17:32;151715.81;;;13.53
15453;BMP280;7827;53.594;9.938;2022-10-16T04:20:00;151722.09;;;13.56
15453;BMP280;7827;53.594;9.938;2022-10-16T04:22:28;151723.34;;;13.56
15453;BMP280;7827;53.594;9.938;2022-10-16T04:24:57;151727.09;;;13.58
15453;BMP280;7827;53.594;9.938;2022-10-16T04:27:26;151729.63;;;13.59
15453;BMP280;7827;53.594;9.938;2022-10-16T04:29:56;151720.88;;;13.55
15453;BMP280;7827;53.594;9.938;2022-10-16T04:32:24;151718.34;;;13.54
15453;BMP280;7827;53.594;9.938;2022-10-16T04:34:53;151719.56;;;13.55
15453;BMP280;7827;53.594;9.938;2022-10-16T04:37:24;151717.09;;;13.54
15453;BMP280;7827;53.594;9.938;2022-10-16T04:39:53;151709.56;;;13.51
15453;BMP280;7827;53.594;9.938;2022-10-16T04:42:22;151698.28;;;13.46
15453;BMP280;7827;53.594;9.938;2022-10-16T04:44:51;151702.03;;;13.48
15453;BMP280;7827;53.594;9.938;2022-10-16T04:47:20;151702.03;;;13.48
15453;BMP280;7827;53.594;9.938;2022-10-16T04:49:48;151707.03;;;13.50
15453;BMP280;7827;53.594;9.938;2022-10-16T04:52:16;151704.50;;;13.49
15453;BMP280;7827;53.594;9.938;2022-10-16T04:54:45;151702.03;;;13.48
15453;BMP280;7827;53.594;9.938;2022-10-16T04:57:14;151709.56;;;13.51
15453;BMP280;7827;53.594;9.938;2022-10-16T04:59:42;151702.03;;;13.48
15453;BMP280;7827;53.594;9.938;2022-10-16T05:02:11;151700.75;;;13.47
15453;BMP280;7827;53.594;9.938;2022-10-16T05:04:39;151702.03;;;13.48
15453;BMP280;7827;53.594;9.938;2022-10-16T05:07:07;151690.75;;;13.43
15453;BMP280;7827;53.594;9.938;2022-10-16T05:09:35;151693.22;;;13.44
15453;BMP280;7827;53.594;9.938;2022-10-16T05:12:04;151688.22;;;13.42
15453;BMP280;7827;53.594;9.938;2022-10-16T05:14:32;151688.22;;;13.42
15453;BMP280;7827;53.594;9.938;2022-10-16T05:17:00;151695.75;;;13.45
15453;BMP280;7827;53.594;9.938;2022-10-16T05:19:29;151686.97;;;13.42
15453;BMP280;7827;53.594;9.938;2022-10-16T05:21:58;151689.44;;;13.43
15453;BMP280;7827;53.594;9.938;2022-10-16T05:24:26;151688.22;;;13.42
15453;BMP280;7827;53.594;9.938;2022-10-16T05:26:54;151691.97;;;13.44
15453;BMP280;7827;53.594;9.938;2022-10-16T05:29:23;151689.44;;;13.43
15453;BMP280;7827;53.594;9.938;2022-10-16T05:31:52;151686.97;;;13.42
15453;BMP280;7827;53.594;9.938;2022-10-16T05:34:21;151680.69;;;13.39
15453;BMP280;7827;53.594;9.938;2022-10-16T05:36:51;151679.38;;;13.39
15453;BMP280;7827;53.594;9.938;2022-10-16T05:39:19;151674.38;;;13.37
15453;BMP280;7827;53.594;9.938;2022-10-16T05:41:49;151679.38;;;13.39
15453;BMP280;7827;53.594;9.938;2022-10-16T05:44:18;151693.22;;;13.44
15453;BMP280;7827;53.594;9.938;2022-10-16T05:46:47;151699.50;;;13.47
15453;BMP280;7827;53.594;9.938;2022-10-16T05:49:16;151700.75;;;13.47
15453;BMP280;7827;53.594;9.938;2022-10-16T05:51:44;151710.81;;;13.51
15453;BMP280;7827;53.594;9.938;2022-10-16T05:54:14;151719.56;;;13.55
15453;BMP280;7827;53.594;9.938;2022-10-16T05:56:42;151722.09;;;13.56
15453;BMP280;7827;53.594;9.938;2022-10-16T05:59:11;151728.41;;;13.58
15453;BMP280;7827;53.594;9.938;2022-10-16T06:01:39;151729.63;;;13.59
15453;BMP280;7827;53.594;9.938;2022-10-16T06:04:08;151737.16;;;13.62
15453;BMP280;7827;53.594;9.938;2022-10-16T06:06:37;151738.41;;;13.62
15453;BMP280;7827;53.594;9.938;2022-10-16T06:09:05;151754.75;;;13.68
15453;BMP280;7827;53.594;9.938;2022-10-16T06:11:36;151757.25;;;13.69
15453;BMP280;7827;53.594;9.938;2022-10-16T06:14:04;151761.00;;;13.71
15453;BMP280;7827;53.594;9.938;2022-10-16T06:16:36;151776.13;;;13.77
15453;BMP280;7827;53.594;9.938;2022-10-16T06:19:04;151778.59;;;13.78
15453;BMP280;7827;53.594;9.938;2022-10-16T06:21:35;151782.38;;;13.79
15453;BMP280;7827;53.594;9.938;2022-10-16T06:24:03;151777.34;;;13.77
15453;BMP280;7827;53.594;9.938;2022-10-16T06:26:32;151787.41;;;13.81
15453;BMP280;7827;53.594;9.938;2022-10-16T06:29:01;151791.19;;;13.83
15453;BMP280;7827;53.594;9.938;2022-10-16T06:31:30;151799.97;;;13.86
15453;BMP280;7827;53.594;9.938;2022-10-16T06:34:01;151796.19;;;13.85
15453;BMP280;7827;53.594;9.938;2022-10-16T06:36:31;151794.97;;;13.84
15453;BMP280;7827;53.594;9.938;2022-10-16T06:38:59;151807.50;;;13.89
15453;BMP280;7827;53.594;9.938;2022-10-16T06:41:28;151818.78;;;13.94
15453;BMP280;7827;53.594;9.938;2022-10-16T06:43:57;151815.03;;;13.92
15453;BMP280;7827;53.594;9.938;2022-10-16T06:46:27;151823.81;;;13.96
15453;BMP280;7827;53.594;9.938;2022-10-16T06:48:55;151828.84;;;13.98
15453;BMP280;7827;53.594;9.938;2022-10-16T06:51:25;151840.16;;;14.02
15453;BMP280;7827;53.594;9.938;2022-10-16T06:53:55;151865.34;;;14.12
15453;BMP280;7827;53.594;9.938;2022-10-16T06:56:31;151887.94;;;14.21
15453;BMP280;7827;53.594;9.938;2022-10-16T06:59:00;151903.00;;;14.27
15453;BMP280;7827;53.594;9.938;2022-10-16T07:01:31;151925.63;;;14.36
15453;BMP280;7827;53.594;9.938;2022-10-16T07:04:00;151959.53;;;14.49
15453;BMP280;7827;53.594;9.938;2022-10-16T07:06:33;151975.84;;;14.56
15453;BMP280;7827;53.594;9.938;2022-10-16T07:09:05;151988.44;;;14.61
15453;BMP280;7827;53.594;9.938;2022-10-16T07:11:34;152011.06;;;14.69
15453;BMP280;7827;53.594;9.938;2022-10-16T07:14:02;152016.06;;;14.71
15453;BMP280;7827;53.594;9.938;2022-10-16T07:16:33;152033.69;;;14.78
15453;BMP280;7827;53.594;9.938;2022-10-16T07:19:02;152018.59;;;14.72
15453;BMP280;7827;53.594;9.938;2022-10-16T07:21:33;152031.16;;;14.77
15453;BMP280;7827;53.594;9.938;2022-10-16T07:24:06;152023.59;;;14.74
15453;BMP280;7827;53.594;9.938;2022-10-16T07:26:36;152032.38;;;14.78
15453;BMP280;7827;53.594;9.938;2022-10-16T07:29:06;152018.59;;;14.72
15453;BMP280;7827;53.594;9.938;2022-10-16T07:31:36;152008.53;;;14.68
15453;BMP280;7827;53.594;9.938;2022-10-16T07:34:06;152003.53;;;14.66
15453;BMP280;7827;53.594;9.938;2022-10-16T07:36:34;152023.59;;;14.74
15453;BMP280;7827;53.594;9.938;2022-10-16T07:39:03;152041.22;;;14.81
15453;BMP280;7827;53.594;9.938;2022-10-16T07:41:32;152057.53;;;14.88
15453;BMP280;7827;53.594;9.938;2022-10-16T07:44:04;152066.34;;;14.91
15453;BMP280;7827;53.594;9.938;2022-10-16T07:46:32;152083.91;;;14.98
15453;BMP280;7827;53.594;9.938;2022-10-16T07:49:04;152120.38;;;15.12
15453;BMP280;7827;53.594;9.938;2022-10-16T07:51:32;152117.84;;;15.11
15453;BMP280;7827;53.594;9.938;2022-10-16T07:54:00;152126.69;;;15.15
15453;BMP280;7827;53.594;9.938;2022-10-16T07:56:31;152131.69;;;15.17
15453;BMP280;7827;53.594;9.938;2022-10-16T07:58:59;152121.63;;;15.13
15453;BMP280;7827;53.594;9.938;2022-10-16T08:01:27;152114.06;;;15.10
15453;BMP280;7827;53.594;9.938;2022-10-16T08:03:55;152092.75;;;15.02
15453;BMP280;7827;53.594;9.938;2022-10-16T08:06:25;152085.22;;;14.99
15453;BMP280;7827;53.594;9.938;2022-10-16T08:08:55;152068.84;;;14.92
15453;BMP280;7827;53.594;9.938;2022-10-16T08:11:24;152066.34;;;14.91
15453;BMP280;7827;53.594;9.938;2022-10-16T08:13:52;152071.38;;;14.93
15453;BMP280;7827;53.594;9.938;2022-10-16T08:16:21;152082.69;;;14.98
15453;BMP280;7827;53.594;9.938;2022-10-16T08:18:49;152088.97;;;15.00
15453;BMP280;7827;53.594;9.938;2022-10-16T08:21:21;152099.00;;;15.04
15453;BMP280;7827;53.594;9.938;2022-10-16T08:23:53;152129.16;;;15.16
15453;BMP280;7827;53.594;9.938;2022-10-16T08:26:26;152146.81;;;15.23
15453;BMP280;7827;53.594;9.938;2022-10-16T08:28:55;152179.50;;;15.36
15453;BMP280;7827;53.594;9.938;2022-10-16T08:31:24;152205.91;;;15.46
15453;BMP280;7827;53.594;9.938;2022-10-16T08:33:53;152222.22;;;15.53
15453;BMP280;7827;53.594;9.938;2022-10-16T08:36:21;152227.28;;;15.55
15453;BMP280;7827;53.594;9.938;2022-10-16T08:38:51;152222.22;;;15.53
15453;BMP280;7827;53.594;9.938;2022-10-16T08:42:04;152219.75;;;15.52
15453;BMP280;7827;53.594;9.938;2022-10-16T08:45:21;152252.44;;;15.64
15453;BMP280;7827;53.594;9.938;2022-10-16T08:48:04;152267.53;;;15.70
15453;BMP280;7827;53.594;9.938;2022-10-16T08:50:38;152305.25;;;15.85
15453;BMP280;7827;53.594;9.938;2022-10-16T08:53:15;152343.00;;;16.00
15453;BMP280;7827;53.594;9.938;2022-10-16T08:55:49;152343.00;;;16.00
15453;BMP280;7827;53.594;9.938;2022-10-16T08:58:20;152370.63;;;16.11
15453;BMP280;7827;53.594;9.938;2022-10-16T09:00:53;152400.88;;;16.23
15453;BMP280;7827;53.594;9.938;2022-10-16T09:03:36;152418.50;;;16.30
15453;BMP280;7827;53.594;9.938;2022-10-16T09:06:29;152432.34;;;16.35
15453;BMP280;7827;53.594;9.938;2022-10-16T09:09:23;152427.31;;;16.33
15453;BMP280;7827;53.594;9.938;2022-10-16T09:12:02;152431.09;;;16.35
15453;BMP280;7827;53.594;9.938;2022-10-16T09:14:50;152456.22;;;16.45
15453;BMP280;7827;53.594;9.938;2022-10-16T09:17:37;152487.72;;;16.57
15453;BMP280;7827;53.594;9.938;2022-10-16T09:20:26;152491.47;;;16.58
15453;BMP280;7827;53.594;9.938;2022-10-16T09:23:12;152563.19;;;16.87
15453;BMP280;7827;53.594;9.938;2022-10-16T09:25:45;152589.63;;;16.97
15453;BMP280;7827;53.594;9.938;2022-10-16T09:28:17;152574.53;;;16.91
15453;BMP280;7827;53.594;9.938;2022-10-16T09:30:47;152595.94;;;17.00
15453;BMP280;7827;53.594;9.938;2022-10-16T09:33:20;152597.16;;;17.00
15453;BMP280;7827;53.594;9.938;2022-10-16T09:35:51;152602.25;;;17.02
15453;BMP280;7827;53.594;9.938;2022-10-16T09:38:24;152617.34;;;17.08
15453;BMP280;7827;53.594;9.938;2022-10-16T09:40:53;152618.59;;;17.08
15453;BMP280;7827;53.594;9.938;2022-10-16T09:43:36;152628.66;;;17.12
15453;BMP280;7827;53.594;9.938;2022-10-16T09:46:19;152655.16;;;17.23
15453;BMP280;7827;53.594;9.938;2022-10-16T09:48:51;152680.28;;;17.33
15453;BMP280;7827;53.594;9.938;2022-10-16T09:51:25;152696.69;;;17.39
15453;BMP280;7827;53.594;9.938;2022-10-16T09:53:59;152721.88;;;17.49
15453;BMP280;7827;53.594;9.938;2022-10-16T09:56:31;152729.41;;;17.52
15453;BMP280;7827;53.594;9.938;2022-10-16T09:59:10;152759.63;;;17.64
15453;BMP280;7827;53.594;9.938;2022-10-16T10:01:42;152763.41;;;17.65
15453;BMP280;7827;53.594;9.938;2022-10-16T10:04:12;152772.22;;;17.69
15453;BMP280;7827;53.594;9.938;2022-10-16T10:06:45;152767.19;;;17.67
15453;BMP280;7827;53.594;9.938;2022-10-16T10:09:19;152770.97;;;17.68
15453;BMP280;7827;53.594;9.938;2022-10-16T10:11:52;152748.31;;;17.59
15453;BMP280;7827;53.594;9.938;2022-10-16T10:14:44;152723.09;;;17.50
15453;BMP280;7827;53.594;9.938;2022-10-16T10:17:18;152725.66;;;17.51
15453;BMP280;7827;53.594;9.938;2022-10-16T10:19:52;152762.13;;;17.65
15453;BMP280;7827;53.594;9.938;2022-10-16T10:22:29;152783.53;;;17.73
15453;BMP280;7827;53.594;9.938;2022-10-16T10:25:16;152801.19;;;17.80
15453;BMP280;7827;53.594;9.938;2022-10-16T10:27:59;152817.53;;;17.87
15453;BMP280;7827;53.594;9.938;2022-10-16T10:30:40;152808.72;;;17.83
15453;BMP280;7827;53.594;9.938;2022-10-16T10:33:24;152796.16;;;17.78
15453;BMP280;7827;53.594;9.938;2022-10-16T10:36:06;152786.06;;;17.74
15453;BMP280;7827;53.594;9.938;2022-10-16T10:38:45;152792.38;;;17.77
15453;BMP280;7827;53.594;9.938;2022-10-16T10:41:39;152813.75;;;17.85
15453;BMP280;7827;53.594;9.938;2022-10-16T10:44:26;152781.00;;;17.72
15453;BMP280;7827;53.594;9.938;2022-10-16T10:47:13;152769.69;;;17.68
15453;BMP280;7827;53.594;9.938;2022-10-16T10:49:57;152793.63;;;17.77
15453;BMP280;7827;53.594;9.938;2022-10-16T10:52:53;152850.28;;;18.00
15453;BMP280;7827;53.594;9.938;2022-10-16T10:55:33;152862.88;;;18.04
15453;BMP280;7827;53.594;9.938;2022-10-16T10:58:35;152880.50;;;18.11
15453;BMP280;7827;53.594;9.938;2022-10-16T11:01:10;152879.28;;;18.11
15453;BMP280;7827;53.594;9.938;2022-10-16T11:04:16;152876.72;;;18.10
15453;BMP280;7827;53.594;9.938;2022-10-16T11:06:53;152910.78;;;18.23
15453;BMP280;7827;53.594;9.938;2022-10-16T11:09:28;152927.19;;;18.30
15453;BMP280;7827;53.594;9.938;2022-10-16T11:12:06;152936.00;;;18.33
15453;BMP280;7827;53.594;9.938;2022-10-16T11:14:43;152954.88;;;18.41
15453;BMP280;7827;53.594;9.938;2022-10-16T11:17:18;152964.97;;;18.45
15453;BMP280;7827;53.594;9.938;2022-10-16T11:19:56;152967.47;;;18.46
15453;BMP280;7827;53.594;9.938;2022-10-16T11:22:32;152962.44;;;18.44
15453;BMP280;7827;53.594;9.938;2022-10-16T11:25:13;152987.66;;;18.54
15453;BMP280;7827;53.594;9.938;2022-10-16T11:27:47;152975.06;;;18.49
15453;BMP280;7827;53.594;9.938;2022-10-16T11:30:20;152999.00;;;18.58
15453;BMP280;7827;53.594;9.938;2022-10-16T11:33:03;153004.00;;;18.60
15453;BMP280;7827;53.594;9.938;2022-10-16T11:35:42;152987.66;;;18.54
15453;BMP280;7827;53.594;9.938;2022-10-16T11:38:26;152977.56;;;18.50
15453;BMP280;7827;53.594;9.938;2022-10-16T11:41:03;152948.56;;;18.38
15453;BMP280;7827;53.594;9.938;2022-10-16T11:43:41;152933.47;;;18.32
15453;BMP280;7827;53.594;9.938;2022-10-16T11:46:17;152898.22;;;18.18
15453;BMP280;7827;53.594;9.938;2022-10-16T11:48:52;152886.88;;;18.14
15453;BMP280;7827;53.594;9.938;2022-10-16T11:51:35;152883.03;;;18.12
15453;BMP280;7827;53.594;9.938;2022-10-16T11:54:16;152898.22;;;18.18
15453;BMP280;7827;53.594;9.938;2022-10-16T11:56:54;152923.41;;;18.28
15453;BMP280;7827;53.594;9.938;2022-10-16T11:59:34;152942.31;;;18.36
15453;BMP280;7827;53.594;9.938;2022-10-16T12:02:29;152978.84;;;18.50
15453;BMP280;7827;53.594;9.938;2022-10-16T12:05:14;153009.09;;;18.62
15453;BMP280;7827;53.594;9.938;2022-10-16T12:07:54;153000.22;;;18.58
15453;BMP280;7827;53.594;9.938;2022-10-16T12:10:28;153002.75;;;18.59
15453;BMP280;7827;53.594;9.938;2022-10-16T12:12:58;152980.09;;;18.51
15453;BMP280;7827;53.594;9.938;2022-10-16T12:15:28;152963.69;;;18.44
15453;BMP280;7827;53.594;9.938;2022-10-16T12:18:23;152976.31;;;18.49
15453;BMP280;7827;53.594;9.938;2022-10-16T12:20:55;152972.53;;;18.48
15453;BMP280;7827;53.594;9.938;2022-10-16T12:23:28;152977.56;;;18.50
15453;BMP280;7827;53.594;9.938;2022-10-16T12:25:58;152948.56;;;18.38
15453;BMP280;7827;53.594;9.938;2022-10-16T12:28:29;152948.56;;;18.38
15453;BMP280;7827;53.594;9.938;2022-10-16T12:31:01;152941.00;;;18.35
15453;BMP280;7827;53.594;9.938;2022-10-16T12:33:32;152932.22;;;18.32
15453;BMP280;7827;53.594;9.938;2022-10-16T12:36:03;152909.53;;;18.23
15453;BMP280;7827;53.594;9.938;2022-10-16T12:38:44;152914.56;;;18.25
15453;BMP280;7827;53.594;9.938;2022-10-16T12:41:25;152905.75;;;18.21
15453;BMP280;7827;53.594;9.938;2022-10-16T12:43:55;152904.53;;;18.21
15453;BMP280;7827;53.594;9.938;2022-10-16T12:46:35;152938.53;;;18.34
15453;BMP280;7827;53.594;9.938;2022-10-16T12:49:23;152930.97;;;18.31
15453;BMP280;7827;53.594;9.938;2022-10-16T12:51:57;152901.97;;;18.20
15453;BMP280;7827;53.594;9.938;2022-10-16T12:54:31;152879.28;;;18.11
15453;BMP280;7827;53.594;9.938;2022-10-16T12:57:18;152830.16;;;17.92
15453;BMP280;7827;53.594;9.938;2022-10-16T13:00:03;152833.94;;;17.93
15453;BMP280;7827;53.594;9.938;2022-10-16T13:06:28;152898.22;;;18.18
15453;BMP280;7827;53.594;9.938;2022-10-16T13:09:15;152899.44;;;18.19
15453;BMP280;7827;53.594;9.938;2022-10-16T13:12:11;152922.13;;;18.28
15453;BMP280;7827;53.594;9.938;2022-10-16T13:15:02;152927.19;;;18.30
15453;BMP280;7827;53.594;9.938;2022-10-16T13:17:46;152944.78;;;18.37
15453;BMP280;7827;53.594;9.938;2022-10-16T13:20:28;152947.31;;;18.38
15453;BMP280;7827;53.594;9.938;2022-10-16T13:23:12;152928.44;;;18.30
15453;BMP280;7827;53.594;9.938;2022-10-16T13:25:58;152922.13;;;18.28
15453;BMP280;7827;53.594;9.938;2022-10-16T13:28:33;152937.22;;;18.34
15453;BMP280;7827;53.594;9.938;2022-10-16T13:31:03;152941.00;;;18.35
15453;BMP280;7827;53.594;9.938;2022-10-16T13:33:35;152947.31;;;18.38
15453;BMP280;7827;53.594;9.938;2022-10-16T13:36:05;152947.31;;;18.38
15453;BMP280;7827;53.594;9.938;2022-10-16T13:38:36;152928.44;;;18.30
15453;BMP280;7827;53.594;9.938;2022-10-16T13:41:13;152946.09;;;18.37
15453;BMP280;7827;53.594;9.938;2022-10-16T13:43:47;152929.69;;;18.31
15453;BMP280;7827;53.594;9.938;2022-10-16T13:46:20;152928.44;;;18.30
15453;BMP280;7827;53.594;9.938;2022-10-16T13:48:57;152922.13;;;18.28
15453;BMP280;7827;53.594;9.938;2022-10-16T13:51:27;152913.31;;;18.24
15453;BMP280;7827;53.594;9.938;2022-10-16T13:53:57;152924.66;;;18.29
15453;BMP280;7827;53.594;9.938;2022-10-16T13:56:28;152899.44;;;18.19
15453;BMP280;7827;53.594;9.938;2022-10-16T13:59:03;152875.50;;;18.09
15453;BMP280;7827;53.594;9.938;2022-10-16T14:01:34;152872.94;;;18.08
15453;BMP280;7827;53.594;9.938;2022-10-16T14:04:06;152871.72;;;18.08
15453;BMP280;7827;53.594;9.938;2022-10-16T14:06:36;152851.53;;;18.00
15453;BMP280;7827;53.594;9.938;2022-10-16T14:09:14;152832.66;;;17.93
15453;BMP280;7827;53.594;9.938;2022-10-16T14:11:49;152817.53;;;17.87
15453;BMP280;7827;53.594;9.938;2022-10-16T14:14:19;152799.94;;;17.80
15453;BMP280;7827;53.594;9.938;2022-10-16T14:16:48;152788.59;;;17.75
15453;BMP280;7827;53.594;9.938;2022-10-16T14:19:22;152791.09;;;17.76
15453;BMP280;7827;53.594;9.938;2022-10-16T14:21:52;152762.13;;;17.65
15453;BMP280;7827;53.594;9.938;2022-10-16T14:24:27;152765.91;;;17.66
15453;BMP280;7827;53.594;9.938;2022-10-16T14:27:29;152796.16;;;17.78
15453;BMP280;7827;53.594;9.938;2022-10-16T14:30:15;152828.88;;;17.91
15453;BMP280;7827;53.594;9.938;2022-10-16T14:32:55;152860.38;;;18.04
15453;BMP280;7827;53.594;9.938;2022-10-16T14:35:30;152872.94;;;18.08
15453;BMP280;7827;53.594;9.938;2022-10-16T14:38:01;152864.16;;;18.05
15453;BMP280;7827;53.594;9.938;2022-10-16T14:40:33;152836.41;;;17.94
15453;BMP280;7827;53.594;9.938;2022-10-16T14:43:03;152838.94;;;17.95
15453;BMP280;7827;53.594;9.938;2022-10-16T14:45:35;152807.50;;;17.83
15453;BMP280;7827;53.594;9.938;2022-10-16T14:48:14;152793.63;;;17.77
15453;BMP280;7827;53.594;9.938;2022-10-16T14:50:46;152769.69;;;17.68